Big Bear Station Historical Data
Daily Summary for December 4, 2017 Units:  English    Metric   Both
« Previous Day
Next Day »
Daily Weekly Monthly Yearly Custom
  High: Low: Average:
Temperature: 39.7 °F 21.6 °F 27.5 °F
Dew Point: 17.2 °F 3.8 °F 9.2 °F
Humidity: 75 % 27 % 48 %
Wind Speed: 3.7 mph 0.0 mph 0.5 mph
Wind Gust: -999.0 mph - -
Wind:- - South
Pressure: 30.15 in 30.07 in -
Precipitation: 0.00 in    
Historical Graphs
 
 
Tabular Data for December 4, 2017
Time Temperature Dew Point Pressure Wind Wind Speed Wind Gust Humidity Rainfall Rate (Hourly)
00:15 27.0 °F 15.0 °F 30.11 in SSW 3.2 mph -999.0 mph 60 % 0 in
00:30 26.8 °F 14.4 °F 30.11 in Calm   -999.0 mph 59 % 0 in
00:45 26.2 °F 14.2 °F 30.10 in Calm   -999.0 mph 60 % 0 in
01:00 26.4 °F 14.0 °F 30.10 in Calm   -999.0 mph 59 % 0 in
01:16 26.8 °F 10.6 °F 30.10 in Calm   -999.0 mph 50 % 0 in
01:31 25.7 °F 9.6 °F 30.10 in Calm   -999.0 mph 50 % 0 in
01:46 25.9 °F 8.9 °F 30.10 in Calm   -999.0 mph 48 % 0 in
02:01 25.5 °F 12.0 °F 30.10 in Calm   -999.0 mph 56 % 0 in
02:16 25.3 °F 15.2 °F 30.10 in Calm   -999.0 mph 65 % 0 in
02:32 24.6 °F 15.2 °F 30.10 in Calm   -999.0 mph 67 % 0 in
02:47 24.4 °F 15.0 °F 30.10 in Calm   -999.0 mph 67 % 0 in
03:02 24.6 °F 14.9 °F 30.11 in Calm   -999.0 mph 66 % 0 in
03:17 25.0 °F 17.2 °F 30.11 in Calm   -999.0 mph 72 % 0 in
03:32 24.1 °F 16.7 °F 30.10 in Calm   -999.0 mph 73 % 0 in
03:48 24.3 °F 15.9 °F 30.10 in Calm   -999.0 mph 70 % 0 in
04:03 23.9 °F 14.2 °F 30.10 in Calm   -999.0 mph 66 % 0 in
04:19 23.9 °F 14.9 °F 30.10 in Calm   -999.0 mph 68 % 0 in
04:34 23.4 °F 15.4 °F 30.11 in Calm   -999.0 mph 71 % 0 in
04:49 23.0 °F 15.6 °F 30.10 in Calm   -999.0 mph 73 % 0 in
05:04 23.0 °F 15.6 °F 30.11 in Calm   -999.0 mph 73 % 0 in
05:19 23.0 °F 15.3 °F 30.11 in Calm   -999.0 mph 72 % 0 in
05:35 22.3 °F 15.6 °F 30.11 in Calm   -999.0 mph 75 % 0 in
05:50 23.0 °F 15.9 °F 30.11 in Calm   -999.0 mph 74 % 0 in
06:05 23.0 °F 15.3 °F 30.12 in Calm   -999.0 mph 72 % 0 in
06:20 22.5 °F 15.5 °F 30.12 in Calm   -999.0 mph 74 % 0 in
06:35 22.5 °F 14.8 °F 30.12 in Calm   -999.0 mph 72 % 0 in
06:51 22.3 °F 14.0 °F 30.12 in Calm   -999.0 mph 70 % 0 in
07:06 21.6 °F 13.3 °F 30.12 in Calm   -999.0 mph 70 % 0 in
07:21 21.9 °F 12.3 °F 30.11 in Calm   -999.0 mph 66 % 0 in
07:36 22.1 °F 11.8 °F 30.12 in Calm   -999.0 mph 64 % 0 in
07:52 22.1 °F 11.1 °F 30.12 in Calm   -999.0 mph 62 % 0 in
08:07 22.1 °F 10.3 °F 30.12 in Calm   -999.0 mph 60 % 0 in
08:22 22.5 °F 9.6 °F 30.12 in Calm   -999.0 mph 57 % 0 in
08:37 23.4 °F 9.6 °F 30.12 in Calm   -999.0 mph 55 % 0 in
08:52 24.8 °F 9.2 °F 30.12 in Calm   -999.0 mph 51 % 0 in
09:08 26.1 °F 9.5 °F 30.12 in Calm   -999.0 mph 49 % 0 in
09:23 28.2 °F 9.6 °F 30.12 in Calm   -999.0 mph 45 % 0 in
09:38 31.3 °F 8.6 °F 30.12 in WSW 2.2 mph -999.0 mph 38 % 0 in
09:53 33.3 °F 9.2 °F 30.12 in Calm   -999.0 mph 36 % 0 in
10:09 33.8 °F 8.4 °F 30.11 in North 2.2 mph -999.0 mph 34 % 0 in
10:24 36.0 °F 9.0 °F 30.11 in Calm   -999.0 mph 32 % 0 in
10:39 36.7 °F 8.9 °F 30.10 in NNW 2.7 mph -999.0 mph 31 % 0 in
10:54 37.4 °F 8.0 °F 30.11 in Calm   -999.0 mph 29 % 0 in
11:10 39.0 °F 8.6 °F 30.09 in Calm   -999.0 mph 28 % 0 in
11:25 38.7 °F 7.5 °F 30.09 in South 2.7 mph -999.0 mph 27 % 0 in
11:40 39.2 °F 8.0 °F 30.09 in Calm   -999.0 mph 27 % 0 in
11:55 39.6 °F 9.1 °F 30.08 in NE 2.2 mph -999.0 mph 28 % 0 in
12:10 39.7 °F 9.2 °F 30.07 in WNW 2.7 mph -999.0 mph 28 % 0 in
12:26 39.2 °F 8.0 °F 30.07 in Calm   -999.0 mph 27 % 0 in
12:41 38.8 °F 8.4 °F 30.07 in North 1.1 mph -999.0 mph 28 % 0 in
12:56 39.7 °F 8.4 °F 30.07 in ESE 3.7 mph -999.0 mph 27 % 0 in
13:11 38.5 °F 8.2 °F 30.07 in SE 2.7 mph -999.0 mph 28 % 0 in
13:27 38.1 °F 7.8 °F 30.07 in East 1.1 mph -999.0 mph 28 % 0 in
13:42 36.9 °F 6.8 °F 30.07 in SW 1.1 mph -999.0 mph 28 % 0 in
13:57 36.5 °F 7.2 °F 30.07 in East 2.2 mph -999.0 mph 29 % 0 in
14:12 36.0 °F 6.8 °F 30.07 in East 3.2 mph -999.0 mph 29 % 0 in
14:28 35.4 °F 7.0 °F 30.07 in Calm   -999.0 mph 30 % 0 in
14:43 34.9 °F 6.6 °F 30.07 in Calm   -999.0 mph 30 % 0 in
14:58 34.2 °F 8.1 °F 30.08 in NNW 3.2 mph -999.0 mph 33 % 0 in
15:13 33.4 °F 8.7 °F 30.09 in Calm   -999.0 mph 35 % 0 in
15:28 32.7 °F 6.1 °F 30.09 in NW 2.2 mph -999.0 mph 32 % 0 in
15:44 32.2 °F 5.6 °F 30.09 in Calm   -999.0 mph 32 % 0 in
16:15 30.2 °F 5.2 °F 30.09 in Calm   -999.0 mph 34 % 0 in
16:30 29.1 °F 6.0 °F 30.09 in Calm   -999.0 mph 37 % 0 in
16:45 28.2 °F 5.2 °F 30.10 in SSE 2.7 mph -999.0 mph 37 % 0 in
17:00 27.5 °F 4.6 °F 30.10 in Calm   -999.0 mph 37 % 0 in
17:15 26.8 °F 4.6 °F 30.10 in Calm   -999.0 mph 38 % 0 in
17:31 25.9 °F 4.3 °F 30.10 in Calm   -999.0 mph 39 % 0 in
17:46 25.3 °F 3.8 °F 30.11 in Calm   -999.0 mph 39 % 0 in
18:02 24.6 °F 4.2 °F 30.12 in Calm   -999.0 mph 41 % 0 in
18:17 24.4 °F 4.6 °F 30.11 in Calm   -999.0 mph 42 % 0 in
18:32 24.3 °F 4.5 °F 30.12 in Calm   -999.0 mph 42 % 0 in
18:47 24.6 °F 4.8 °F 30.12 in Calm   -999.0 mph 42 % 0 in
19:03 24.1 °F 4.3 °F 30.13 in Calm   -999.0 mph 42 % 0 in
19:18 23.7 °F 4.4 °F 30.13 in NNE 2.2 mph -999.0 mph 43 % 0 in
19:33 23.7 °F 4.9 °F 30.13 in Calm   -999.0 mph 44 % 0 in
19:48 24.1 °F 6.3 °F 30.13 in East 1.1 mph -999.0 mph 46 % 0 in
20:03 23.7 °F 4.9 °F 30.13 in Calm   -999.0 mph 44 % 0 in
20:19 23.5 °F 4.8 °F 30.13 in Calm   -999.0 mph 44 % 0 in
20:34 23.2 °F 5.0 °F 30.13 in SE 2.2 mph -999.0 mph 45 % 0 in
20:49 23.5 °F 5.7 °F 30.13 in Calm   -999.0 mph 46 % 0 in
21:04 23.0 °F 5.3 °F 30.13 in Calm   -999.0 mph 46 % 0 in
21:19 22.8 °F 5.1 °F 30.13 in Calm   -999.0 mph 46 % 0 in
21:35 23.0 °F 5.3 °F 30.14 in Calm   -999.0 mph 46 % 0 in
21:50 22.8 °F 5.1 °F 30.14 in Calm   -999.0 mph 46 % 0 in
22:05 22.5 °F 4.8 °F 30.15 in Calm   -999.0 mph 46 % 0 in
22:20 22.5 °F 4.8 °F 30.15 in Calm   -999.0 mph 46 % 0 in
22:35 22.8 °F 5.1 °F 30.15 in SSE 1.7 mph -999.0 mph 46 % 0 in
22:51 22.3 °F 5.1 °F 30.15 in Calm   -999.0 mph 47 % 0 in
23:06 22.5 °F 4.8 °F 30.15 in Calm   -999.0 mph 46 % 0 in
23:36 22.5 °F 5.3 °F 30.15 in Calm   -999.0 mph 47 % 0 in
23:52 22.5 °F 5.3 °F 30.15 in Calm   -999.0 mph 47 % 0 in
Big Bear CA Weather
Compliments of Weather Underground - 1.5 mb